Terminal Aerodrome Forecast
Issued by NWS Wilmington, OH

Current Version | Previous Version | Text Only | Print | Product List | Glossary Off
Versions: 1 2 3 4 5 6 7 8 9 10 11 12 13 14 15 16 17 18 19 20 21 22 23 24

576
FTUS41 KILN 172333
TAFCVG
TAF
KCVG 172333Z 1800/1906 02005KT P6SM SCT200
     FM180800 09005KT P6SM BKN080
     FM181300 14010KT P6SM BKN035
     FM182000 22012G22KT P6SM BKN025=

USA.gov is the U.S. government's official web portal to all federal, state and local government web resources and services.